sensor_id;sensor_type;location;lat;lon;timestamp;P1;durP1;ratioP1;P2;durP2;ratioP2
26080;SDS011;13991;51.174;4.438;2022-11-20T00:02:19;44.13;;;18.30;;
26080;SDS011;13991;51.174;4.438;2022-11-20T00:04:45;37.23;;;18.60;;
26080;SDS011;13991;51.174;4.438;2022-11-20T00:07:11;41.83;;;18.00;;
26080;SDS011;13991;51.174;4.438;2022-11-20T00:09:36;40.60;;;20.17;;
26080;SDS011;13991;51.174;4.438;2022-11-20T00:12:02;40.30;;;19.13;;
26080;SDS011;13991;51.174;4.438;2022-11-20T00:14:28;36.27;;;18.43;;
26080;SDS011;13991;51.174;4.438;2022-11-20T00:16:53;44.30;;;19.43;;
26080;SDS011;13991;51.174;4.438;2022-11-20T00:19:19;40.63;;;20.17;;
26080;SDS011;13991;51.174;4.438;2022-11-20T00:21:45;38.10;;;18.93;;
26080;SDS011;13991;51.174;4.438;2022-11-20T00:24:11;43.37;;;18.40;;
26080;SDS011;13991;51.174;4.438;2022-11-20T00:26:37;42.90;;;20.27;;
26080;SDS011;13991;51.174;4.438;2022-11-20T00:29:03;39.27;;;18.57;;
26080;SDS011;13991;51.174;4.438;2022-11-20T00:31:29;38.00;;;19.07;;
26080;SDS011;13991;51.174;4.438;2022-11-20T00:33:55;38.00;;;19.03;;
26080;SDS011;13991;51.174;4.438;2022-11-20T00:36:22;39.10;;;18.40;;
26080;SDS011;13991;51.174;4.438;2022-11-20T00:38:52;36.63;;;19.23;;
26080;SDS011;13991;51.174;4.438;2022-11-20T00:41:19;34.73;;;17.43;;
26080;SDS011;13991;51.174;4.438;2022-11-20T00:43:45;43.07;;;18.20;;
26080;SDS011;13991;51.174;4.438;2022-11-20T00:46:18;40.87;;;19.03;;
26080;SDS011;13991;51.174;4.438;2022-11-20T00:48:45;41.30;;;18.97;;
26080;SDS011;13991;51.174;4.438;2022-11-20T00:51:13;35.30;;;18.10;;
26080;SDS011;13991;51.174;4.438;2022-11-20T00:53:40;38.40;;;18.13;;
26080;SDS011;13991;51.174;4.438;2022-11-20T00:56:07;38.13;;;18.60;;
26080;SDS011;13991;51.174;4.438;2022-11-20T00:58:36;33.37;;;17.27;;
26080;SDS011;13991;51.174;4.438;2022-11-20T01:03:31;34.37;;;17.30;;
26080;SDS011;13991;51.174;4.438;2022-11-20T01:06:01;37.40;;;18.33;;
26080;SDS011;13991;51.174;4.438;2022-11-20T01:08:29;34.53;;;18.03;;
26080;SDS011;13991;51.174;4.438;2022-11-20T01:11:03;36.37;;;17.43;;
26080;SDS011;13991;51.174;4.438;2022-11-20T01:13:31;39.50;;;17.33;;
26080;SDS011;13991;51.174;4.438;2022-11-20T01:16:05;37.23;;;18.30;;
26080;SDS011;13991;51.174;4.438;2022-11-20T01:18:31;37.53;;;18.43;;
26080;SDS011;13991;51.174;4.438;2022-11-20T01:21:04;39.37;;;19.87;;
26080;SDS011;13991;51.174;4.438;2022-11-20T01:23:35;38.73;;;18.00;;
26080;SDS011;13991;51.174;4.438;2022-11-20T01:26:03;42.27;;;19.17;;
26080;SDS011;13991;51.174;4.438;2022-11-20T01:28:31;43.47;;;19.43;;
26080;SDS011;13991;51.174;4.438;2022-11-20T01:31:01;37.53;;;18.43;;
26080;SDS011;13991;51.174;4.438;2022-11-20T01:33:35;37.80;;;18.10;;
26080;SDS011;13991;51.174;4.438;2022-11-20T01:36:05;37.07;;;18.70;;
26080;SDS011;13991;51.174;4.438;2022-11-20T01:38:32;37.40;;;18.50;;
26080;SDS011;13991;51.174;4.438;2022-11-20T01:40:58;38.30;;;18.07;;
26080;SDS011;13991;51.174;4.438;2022-11-20T01:43:24;34.93;;;17.80;;
26080;SDS011;13991;51.174;4.438;2022-11-20T01:46:01;34.40;;;17.63;;
26080;SDS011;13991;51.174;4.438;2022-11-20T01:51:42;36.97;;;18.37;;
26080;SDS011;13991;51.174;4.438;2022-11-20T01:54:38;40.43;;;19.10;;
26080;SDS011;13991;51.174;4.438;2022-11-20T01:57:09;36.57;;;18.93;;
26080;SDS011;13991;51.174;4.438;2022-11-20T01:59:38;36.20;;;17.70;;
26080;SDS011;13991;51.174;4.438;2022-11-20T02:02:07;40.67;;;20.13;;
26080;SDS011;13991;51.174;4.438;2022-11-20T02:04:32;36.70;;;18.67;;
26080;SDS011;13991;51.174;4.438;2022-11-20T02:06:59;39.20;;;19.20;;
26080;SDS011;13991;51.174;4.438;2022-11-20T02:09:26;39.83;;;18.77;;
26080;SDS011;13991;51.174;4.438;2022-11-20T02:11:52;36.70;;;19.70;;
26080;SDS011;13991;51.174;4.438;2022-11-20T02:14:20;43.97;;;18.10;;
26080;SDS011;13991;51.174;4.438;2022-11-20T02:16:47;41.47;;;18.73;;
26080;SDS011;13991;51.174;4.438;2022-11-20T02:19:22;35.30;;;17.50;;
26080;SDS011;13991;51.174;4.438;2022-11-20T02:24:25;38.57;;;18.83;;
26080;SDS011;13991;51.174;4.438;2022-11-20T02:29:37;36.77;;;18.80;;
26080;SDS011;13991;51.174;4.438;2022-11-20T02:32:18;39.27;;;18.63;;
26080;SDS011;13991;51.174;4.438;2022-11-20T02:34:46;44.10;;;20.70;;
26080;SDS011;13991;51.174;4.438;2022-11-20T02:37:12;46.20;;;20.07;;
26080;SDS011;13991;51.174;4.438;2022-11-20T02:39:38;39.63;;;18.97;;
26080;SDS011;13991;51.174;4.438;2022-11-20T02:42:05;46.83;;;21.30;;
26080;SDS011;13991;51.174;4.438;2022-11-20T02:44:31;46.73;;;21.13;;
26080;SDS011;13991;51.174;4.438;2022-11-20T02:46:57;44.50;;;20.00;;
26080;SDS011;13991;51.174;4.438;2022-11-20T02:49:23;47.43;;;20.93;;
26080;SDS011;13991;51.174;4.438;2022-11-20T02:51:49;47.10;;;20.47;;
26080;SDS011;13991;51.174;4.438;2022-11-20T02:54:15;39.67;;;20.00;;
26080;SDS011;13991;51.174;4.438;2022-11-20T02:56:41;49.70;;;20.50;;
26080;SDS011;13991;51.174;4.438;2022-11-20T02:59:06;42.90;;;21.17;;
26080;SDS011;13991;51.174;4.438;2022-11-20T03:01:32;44.67;;;20.80;;
26080;SDS011;13991;51.174;4.438;2022-11-20T03:03:58;39.23;;;19.97;;
26080;SDS011;13991;51.174;4.438;2022-11-20T03:06:24;40.43;;;19.77;;
26080;SDS011;13991;51.174;4.438;2022-11-20T03:08:50;42.40;;;20.40;;
26080;SDS011;13991;51.174;4.438;2022-11-20T03:11:15;43.50;;;20.77;;
26080;SDS011;13991;51.174;4.438;2022-11-20T03:13:42;52.07;;;20.60;;
26080;SDS011;13991;51.174;4.438;2022-11-20T03:16:08;37.27;;;18.70;;
26080;SDS011;13991;51.174;4.438;2022-11-20T03:18:39;43.17;;;20.13;;
26080;SDS011;13991;51.174;4.438;2022-11-20T03:21:06;46.00;;;20.73;;
26080;SDS011;13991;51.174;4.438;2022-11-20T03:23:32;41.67;;;20.03;;
26080;SDS011;13991;51.174;4.438;2022-11-20T03:26:08;45.17;;;20.70;;
26080;SDS011;13991;51.174;4.438;2022-11-20T03:28:35;39.73;;;19.93;;
26080;SDS011;13991;51.174;4.438;2022-11-20T03:31:05;39.57;;;20.47;;
26080;SDS011;13991;51.174;4.438;2022-11-20T03:33:35;45.47;;;20.67;;
26080;SDS011;13991;51.174;4.438;2022-11-20T03:36:02;52.40;;;21.70;;
26080;SDS011;13991;51.174;4.438;2022-11-20T03:38:32;43.87;;;20.83;;
26080;SDS011;13991;51.174;4.438;2022-11-20T03:41:01;53.70;;;22.63;;
26080;SDS011;13991;51.174;4.438;2022-11-20T03:50:13;57.47;;;25.20;;
26080;SDS011;13991;51.174;4.438;2022-11-20T04:03:45;65.13;;;27.83;;
26080;SDS011;13991;51.174;4.438;2022-11-20T04:06:59;66.93;;;29.00;;
26080;SDS011;13991;51.174;4.438;2022-11-20T04:24:11;67.83;;;29.43;;
26080;SDS011;13991;51.174;4.438;2022-11-20T04:44:43;72.97;;;28.57;;
26080;SDS011;13991;51.174;4.438;2022-11-20T04:51:47;63.20;;;27.53;;
26080;SDS011;13991;51.174;4.438;2022-11-20T04:55:15;67.63;;;29.03;;
26080;SDS011;13991;51.174;4.438;2022-11-20T04:58:51;64.57;;;28.57;;
26080;SDS011;13991;51.174;4.438;2022-11-20T05:05:24;71.97;;;29.37;;
26080;SDS011;13991;51.174;4.438;2022-11-20T05:08:53;73.73;;;28.00;;
26080;SDS011;13991;51.174;4.438;2022-11-20T05:12:14;67.30;;;28.97;;
26080;SDS011;13991;51.174;4.438;2022-11-20T05:15:42;76.97;;;30.23;;
26080;SDS011;13991;51.174;4.438;2022-11-20T05:19:11;70.33;;;28.87;;
26080;SDS011;13991;51.174;4.438;2022-11-20T05:22:43;67.77;;;29.33;;
26080;SDS011;13991;51.174;4.438;2022-11-20T05:33:06;69.67;;;29.77;;
26080;SDS011;13991;51.174;4.438;2022-11-20T05:42:59;72.13;;;29.67;;
26080;SDS011;13991;51.174;4.438;2022-11-20T05:46:15;77.13;;;30.40;;
26080;SDS011;13991;51.174;4.438;2022-11-20T05:49:24;77.73;;;31.30;;
26080;SDS011;13991;51.174;4.438;2022-11-20T05:54:47;81.37;;;31.17;;
26080;SDS011;13991;51.174;4.438;2022-11-20T05:58:09;74.30;;;29.33;;
26080;SDS011;13991;51.174;4.438;2022-11-20T06:04:22;73.87;;;29.03;;
26080;SDS011;13991;51.174;4.438;2022-11-20T06:09:43;68.40;;;30.20;;
26080;SDS011;13991;51.174;4.438;2022-11-20T06:13:18;77.70;;;30.20;;
26080;SDS011;13991;51.174;4.438;2022-11-20T06:16:01;77.97;;;29.53;;
26080;SDS011;13991;51.174;4.438;2022-11-20T06:19:38;67.67;;;29.53;;
26080;SDS011;13991;51.174;4.438;2022-11-20T06:29:34;79.50;;;30.17;;
26080;SDS011;13991;51.174;4.438;2022-11-20T06:32:49;71.83;;;29.83;;
26080;SDS011;13991;51.174;4.438;2022-11-20T06:35:23;71.47;;;30.33;;
26080;SDS011;13991;51.174;4.438;2022-11-20T06:37:57;74.00;;;30.43;;
26080;SDS011;13991;51.174;4.438;2022-11-20T06:43:42;81.93;;;31.17;;
26080;SDS011;13991;51.174;4.438;2022-11-20T06:46:57;77.20;;;32.20;;
26080;SDS011;13991;51.174;4.438;2022-11-20T06:49:36;79.43;;;30.87;;
26080;SDS011;13991;51.174;4.438;2022-11-20T06:52:50;82.93;;;31.63;;
26080;SDS011;13991;51.174;4.438;2022-11-20T07:03:30;74.07;;;30.37;;
26080;SDS011;13991;51.174;4.438;2022-11-20T07:24:02;75.07;;;31.43;;
26080;SDS011;13991;51.174;4.438;2022-11-20T07:26:53;74.57;;;31.20;;
26080;SDS011;13991;51.174;4.438;2022-11-20T07:30:21;71.97;;;30.37;;
26080;SDS011;13991;51.174;4.438;2022-11-20T07:37:08;76.83;;;30.53;;
26080;SDS011;13991;51.174;4.438;2022-11-20T07:40:23;66.10;;;29.80;;
26080;SDS011;13991;51.174;4.438;2022-11-20T07:43:19;71.83;;;29.23;;
26080;SDS011;13991;51.174;4.438;2022-11-20T07:46:41;72.43;;;29.80;;
26080;SDS011;13991;51.174;4.438;2022-11-20T07:50:10;66.17;;;29.13;;
26080;SDS011;13991;51.174;4.438;2022-11-20T07:56:57;76.63;;;31.00;;
26080;SDS011;13991;51.174;4.438;2022-11-20T07:59:40;81.40;;;30.97;;
26080;SDS011;13991;51.174;4.438;2022-11-20T08:02:16;71.43;;;31.73;;
26080;SDS011;13991;51.174;4.438;2022-11-20T08:05:19;76.80;;;29.20;;
26080;SDS011;13991;51.174;4.438;2022-11-20T08:08:57;76.90;;;32.10;;
26080;SDS011;13991;51.174;4.438;2022-11-20T08:12:18;69.97;;;29.63;;
26080;SDS011;13991;51.174;4.438;2022-11-20T08:15:47;82.07;;;30.13;;
26080;SDS011;13991;51.174;4.438;2022-11-20T08:18:34;79.93;;;30.07;;
26080;SDS011;13991;51.174;4.438;2022-11-20T08:21:03;74.57;;;30.93;;
26080;SDS011;13991;51.174;4.438;2022-11-20T08:24:04;77.47;;;29.50;;
26080;SDS011;13991;51.174;4.438;2022-11-20T08:27:21;75.63;;;30.03;;
26080;SDS011;13991;51.174;4.438;2022-11-20T08:30:06;67.63;;;29.97;;
26080;SDS011;13991;51.174;4.438;2022-11-20T08:33:05;80.50;;;30.00;;
26080;SDS011;13991;51.174;4.438;2022-11-20T08:39:17;75.17;;;28.73;;
26080;SDS011;13991;51.174;4.438;2022-11-20T08:41:55;70.00;;;29.23;;
26080;SDS011;13991;51.174;4.438;2022-11-20T08:48:37;75.10;;;29.43;;
26080;SDS011;13991;51.174;4.438;2022-11-20T08:57:42;85.70;;;31.30;;
26080;SDS011;13991;51.174;4.438;2022-11-20T09:08:18;69.07;;;28.80;;
26080;SDS011;13991;51.174;4.438;2022-11-20T09:17:54;75.77;;;28.77;;
26080;SDS011;13991;51.174;4.438;2022-11-20T09:21:09;83.40;;;29.07;;
26080;SDS011;13991;51.174;4.438;2022-11-20T09:34:13;80.07;;;30.77;;
26080;SDS011;13991;51.174;4.438;2022-11-20T09:40:56;79.27;;;29.17;;
26080;SDS011;13991;51.174;4.438;2022-11-20T09:46:21;97.57;;;41.70;;
26080;SDS011;13991;51.174;4.438;2022-11-20T09:54:56;88.83;;;31.80;;
26080;SDS011;13991;51.174;4.438;2022-11-20T09:57:28;87.03;;;30.97;;
26080;SDS011;13991;51.174;4.438;2022-11-20T10:00:03;98.93;;;32.10;;
26080;SDS011;13991;51.174;4.438;2022-11-20T10:02:43;89.87;;;33.83;;
26080;SDS011;13991;51.174;4.438;2022-11-20T10:05:52;95.27;;;32.37;;
26080;SDS011;13991;51.174;4.438;2022-11-20T10:10:53;109.53;;;34.23;;
26080;SDS011;13991;51.174;4.438;2022-11-20T10:13:40;129.47;;;41.77;;
26080;SDS011;13991;51.174;4.438;2022-11-20T10:16:43;111.03;;;32.80;;
26080;SDS011;13991;51.174;4.438;2022-11-20T10:19:38;112.10;;;34.60;;
26080;SDS011;13991;51.174;4.438;2022-11-20T10:22:26;109.13;;;33.20;;
26080;SDS011;13991;51.174;4.438;2022-11-20T10:25:10;113.20;;;33.67;;
26080;SDS011;13991;51.174;4.438;2022-11-20T10:30:23;108.73;;;34.60;;
26080;SDS011;13991;51.174;4.438;2022-11-20T10:33:23;113.27;;;34.93;;
26080;SDS011;13991;51.174;4.438;2022-11-20T10:35:45;121.13;;;35.43;;
26080;SDS011;13991;51.174;4.438;2022-11-20T10:40:55;151.23;;;37.07;;
26080;SDS011;13991;51.174;4.438;2022-11-20T10:43:44;124.43;;;37.87;;
26080;SDS011;13991;51.174;4.438;2022-11-20T10:46:15;139.20;;;38.40;;
26080;SDS011;13991;51.174;4.438;2022-11-20T10:48:44;134.80;;;41.60;;
26080;SDS011;13991;51.174;4.438;2022-11-20T10:51:26;133.63;;;39.47;;
26080;SDS011;13991;51.174;4.438;2022-11-20T10:57:24;131.13;;;37.90;;
26080;SDS011;13991;51.174;4.438;2022-11-20T10:59:59;124.63;;;35.43;;
26080;SDS011;13991;51.174;4.438;2022-11-20T11:02:34;128.60;;;36.80;;
26080;SDS011;13991;51.174;4.438;2022-11-20T11:07:57;127.67;;;36.47;;
26080;SDS011;13991;51.174;4.438;2022-11-20T11:13:06;112.87;;;36.20;;
26080;SDS011;13991;51.174;4.438;2022-11-20T11:15:39;115.20;;;36.53;;
26080;SDS011;13991;51.174;4.438;2022-11-20T11:18:09;118.57;;;34.33;;
26080;SDS011;13991;51.174;4.438;2022-11-20T11:20:36;117.57;;;36.67;;
26080;SDS011;13991;51.174;4.438;2022-11-20T11:23:02;112.00;;;33.60;;
26080;SDS011;13991;51.174;4.438;2022-11-20T11:28:00;137.17;;;36.90;;
26080;SDS011;13991;51.174;4.438;2022-11-20T11:30:28;108.17;;;32.77;;
26080;SDS011;13991;51.174;4.438;2022-11-20T11:33:06;132.20;;;36.17;;
26080;SDS011;13991;51.174;4.438;2022-11-20T11:35:38;111.77;;;33.50;;
26080;SDS011;13991;51.174;4.438;2022-11-20T11:38:13;104.50;;;33.63;;
26080;SDS011;13991;51.174;4.438;2022-11-20T11:40:47;102.63;;;32.70;;
26080;SDS011;13991;51.174;4.438;2022-11-20T11:43:17;105.67;;;32.43;;
26080;SDS011;13991;51.174;4.438;2022-11-20T11:49:01;105.27;;;35.53;;
26080;SDS011;13991;51.174;4.438;2022-11-20T11:51:52;107.90;;;34.40;;
26080;SDS011;13991;51.174;4.438;2022-11-20T11:54:49;105.50;;;31.67;;
26080;SDS011;13991;51.174;4.438;2022-11-20T12:02:29;110.67;;;32.77;;
26080;SDS011;13991;51.174;4.438;2022-11-20T12:10:24;87.53;;;29.23;;
26080;SDS011;13991;51.174;4.438;2022-11-20T12:13:20;85.87;;;28.63;;
26080;SDS011;13991;51.174;4.438;2022-11-20T12:15:56;86.87;;;28.10;;
26080;SDS011;13991;51.174;4.438;2022-11-20T12:18:23;95.67;;;27.67;;
26080;SDS011;13991;51.174;4.438;2022-11-20T12:32:15;79.53;;;28.07;;
26080;SDS011;13991;51.174;4.438;2022-11-20T12:37:55;82.37;;;26.67;;
26080;SDS011;13991;51.174;4.438;2022-11-20T12:40:41;75.30;;;26.90;;
26080;SDS011;13991;51.174;4.438;2022-11-20T12:43:28;65.07;;;23.50;;
26080;SDS011;13991;51.174;4.438;2022-11-20T12:50:02;46.87;;;15.40;;
26080;SDS011;13991;51.174;4.438;2022-11-20T12:52:45;45.33;;;12.33;;
26080;SDS011;13991;51.174;4.438;2022-11-20T12:57:55;14.40;;;4.23;;
26080;SDS011;13991;51.174;4.438;2022-11-20T13:00:25;19.37;;;4.27;;
26080;SDS011;13991;51.174;4.438;2022-11-20T13:08:39;24.93;;;4.40;;
26080;SDS011;13991;51.174;4.438;2022-11-20T13:11:13;22.30;;;4.03;;
26080;SDS011;13991;51.174;4.438;2022-11-20T13:16:32;14.63;;;5.23;;
26080;SDS011;13991;51.174;4.438;2022-11-20T13:19:11;27.60;;;5.73;;
26080;SDS011;13991;51.174;4.438;2022-11-20T13:21:41;22.10;;;5.00;;
26080;SDS011;13991;51.174;4.438;2022-11-20T13:24:30;22.67;;;5.43;;
26080;SDS011;13991;51.174;4.438;2022-11-20T13:29:28;19.93;;;5.47;;
26080;SDS011;13991;51.174;4.438;2022-11-20T13:32:28;23.60;;;5.80;;
26080;SDS011;13991;51.174;4.438;2022-11-20T13:34:54;20.93;;;5.30;;
26080;SDS011;13991;51.174;4.438;2022-11-20T13:37:29;24.00;;;4.80;;
26080;SDS011;13991;51.174;4.438;2022-11-20T13:42:55;11.77;;;4.00;;
26080;SDS011;13991;51.174;4.438;2022-11-20T13:45:28;24.50;;;6.40;;
26080;SDS011;13991;51.174;4.438;2022-11-20T13:47:56;48.50;;;18.67;;
26080;SDS011;13991;51.174;4.438;2022-11-20T13:56:05;39.87;;;9.27;;
26080;SDS011;13991;51.174;4.438;2022-11-20T14:01:20;18.77;;;4.67;;
26080;SDS011;13991;51.174;4.438;2022-11-20T14:03:50;21.73;;;5.23;;
26080;SDS011;13991;51.174;4.438;2022-11-20T14:06:28;21.10;;;5.10;;
26080;SDS011;13991;51.174;4.438;2022-11-20T14:08:54;20.77;;;5.83;;
26080;SDS011;13991;51.174;4.438;2022-11-20T14:11:22;15.27;;;6.07;;
26080;SDS011;13991;51.174;4.438;2022-11-20T14:14:13;19.73;;;6.10;;
26080;SDS011;13991;51.174;4.438;2022-11-20T14:16:41;15.63;;;5.20;;
26080;SDS011;13991;51.174;4.438;2022-11-20T14:21:53;20.20;;;4.70;;
26080;SDS011;13991;51.174;4.438;2022-11-20T14:24:39;23.80;;;6.83;;
26080;SDS011;13991;51.174;4.438;2022-11-20T14:27:09;34.00;;;12.53;;
26080;SDS011;13991;51.174;4.438;2022-11-20T14:29:46;24.07;;;8.30;;
26080;SDS011;13991;51.174;4.438;2022-11-20T14:32:16;17.43;;;3.90;;
26080;SDS011;13991;51.174;4.438;2022-11-20T14:34:43;11.67;;;3.27;;
26080;SDS011;13991;51.174;4.438;2022-11-20T14:37:11;14.10;;;3.40;;
26080;SDS011;13991;51.174;4.438;2022-11-20T14:39:42;8.93;;;2.73;;
26080;SDS011;13991;51.174;4.438;2022-11-20T14:42:17;13.10;;;5.13;;
26080;SDS011;13991;51.174;4.438;2022-11-20T14:44:44;20.77;;;8.30;;
26080;SDS011;13991;51.174;4.438;2022-11-20T14:47:12;16.23;;;7.40;;
26080;SDS011;13991;51.174;4.438;2022-11-20T14:49:40;7.27;;;3.43;;
26080;SDS011;13991;51.174;4.438;2022-11-20T14:52:14;11.87;;;5.77;;
26080;SDS011;13991;51.174;4.438;2022-11-20T14:57:19;7.67;;;2.43;;
26080;SDS011;13991;51.174;4.438;2022-11-20T14:59:47;9.47;;;3.73;;
26080;SDS011;13991;51.174;4.438;2022-11-20T15:02:13;11.37;;;3.53;;
26080;SDS011;13991;51.174;4.438;2022-11-20T15:04:49;9.70;;;3.33;;
26080;SDS011;13991;51.174;4.438;2022-11-20T15:07:29;5.73;;;2.63;;
26080;SDS011;13991;51.174;4.438;2022-11-20T15:10:03;10.23;;;4.57;;
26080;SDS011;13991;51.174;4.438;2022-11-20T15:12:32;6.67;;;2.63;;
26080;SDS011;13991;51.174;4.438;2022-11-20T15:15:01;7.97;;;3.37;;
26080;SDS011;13991;51.174;4.438;2022-11-20T15:17:27;9.13;;;3.00;;
26080;SDS011;13991;51.174;4.438;2022-11-20T15:19:53;12.30;;;4.33;;
26080;SDS011;13991;51.174;4.438;2022-11-20T15:22:20;6.40;;;3.90;;
26080;SDS011;13991;51.174;4.438;2022-11-20T15:24:45;5.80;;;3.17;;
26080;SDS011;13991;51.174;4.438;2022-11-20T15:27:11;13.60;;;2.83;;
26080;SDS011;13991;51.174;4.438;2022-11-20T15:29:37;12.03;;;3.63;;
26080;SDS011;13991;51.174;4.438;2022-11-20T15:32:03;6.37;;;2.77;;
26080;SDS011;13991;51.174;4.438;2022-11-20T15:34:29;6.37;;;2.60;;
26080;SDS011;13991;51.174;4.438;2022-11-20T15:36:54;8.77;;;3.37;;
26080;SDS011;13991;51.174;4.438;2022-11-20T15:39:20;7.67;;;3.20;;
26080;SDS011;13991;51.174;4.438;2022-11-20T15:41:46;10.13;;;3.23;;
26080;SDS011;13991;51.174;4.438;2022-11-20T15:44:12;11.43;;;3.20;;
26080;SDS011;13991;51.174;4.438;2022-11-20T15:46:39;9.27;;;4.00;;
26080;SDS011;13991;51.174;4.438;2022-11-20T15:49:11;11.27;;;4.00;;
26080;SDS011;13991;51.174;4.438;2022-11-20T15:51:38;12.40;;;4.23;;
26080;SDS011;13991;51.174;4.438;2022-11-20T15:54:15;8.23;;;3.83;;
26080;SDS011;13991;51.174;4.438;2022-11-20T15:56:45;10.40;;;3.73;;
26080;SDS011;13991;51.174;4.438;2022-11-20T15:59:12;7.33;;;4.00;;
26080;SDS011;13991;51.174;4.438;2022-11-20T16:01:39;15.73;;;4.30;;
26080;SDS011;13991;51.174;4.438;2022-11-20T16:04:10;15.47;;;5.27;;
26080;SDS011;13991;51.174;4.438;2022-11-20T16:06:40;22.37;;;5.73;;
26080;SDS011;13991;51.174;4.438;2022-11-20T16:09:06;61.40;;;22.53;;
26080;SDS011;13991;51.174;4.438;2022-11-20T16:11:32;19.00;;;7.23;;
26080;SDS011;13991;51.174;4.438;2022-11-20T16:14:01;25.93;;;7.37;;
26080;SDS011;13991;51.174;4.438;2022-11-20T16:16:46;25.03;;;6.20;;
26080;SDS011;13991;51.174;4.438;2022-11-20T16:19:15;12.07;;;4.83;;
26080;SDS011;13991;51.174;4.438;2022-11-20T16:21:43;17.93;;;4.77;;
26080;SDS011;13991;51.174;4.438;2022-11-20T16:24:10;18.17;;;4.47;;
26080;SDS011;13991;51.174;4.438;2022-11-20T16:26:39;23.07;;;6.50;;
26080;SDS011;13991;51.174;4.438;2022-11-20T16:29:05;25.90;;;5.13;;
26080;SDS011;13991;51.174;4.438;2022-11-20T16:31:32;36.13;;;7.40;;
26080;SDS011;13991;51.174;4.438;2022-11-20T16:33:59;31.57;;;5.00;;
26080;SDS011;13991;51.174;4.438;2022-11-20T16:36:27;21.67;;;4.47;;
26080;SDS011;13991;51.174;4.438;2022-11-20T16:38:58;23.53;;;4.23;;
26080;SDS011;13991;51.174;4.438;2022-11-20T16:41:26;30.73;;;4.57;;
26080;SDS011;13991;51.174;4.438;2022-11-20T16:43:53;30.30;;;5.47;;
26080;SDS011;13991;51.174;4.438;2022-11-20T16:46:24;32.73;;;5.40;;
26080;SDS011;13991;51.174;4.438;2022-11-20T16:51:21;33.10;;;4.53;;
26080;SDS011;13991;51.174;4.438;2022-11-20T16:53:51;28.77;;;4.77;;
26080;SDS011;13991;51.174;4.438;2022-11-20T16:56:20;38.20;;;5.83;;
26080;SDS011;13991;51.174;4.438;2022-11-20T16:58:48;40.57;;;6.47;;
26080;SDS011;13991;51.174;4.438;2022-11-20T17:01:16;48.10;;;5.47;;
26080;SDS011;13991;51.174;4.438;2022-11-20T17:03:44;24.60;;;4.77;;
26080;SDS011;13991;51.174;4.438;2022-11-20T17:06:16;26.77;;;4.50;;
26080;SDS011;13991;51.174;4.438;2022-11-20T17:08:43;42.73;;;4.93;;
26080;SDS011;13991;51.174;4.438;2022-11-20T17:11:16;31.33;;;4.83;;
26080;SDS011;13991;51.174;4.438;2022-11-20T17:13:43;31.63;;;4.37;;
26080;SDS011;13991;51.174;4.438;2022-11-20T17:16:12;32.50;;;5.57;;
26080;SDS011;13991;51.174;4.438;2022-11-20T17:18:42;42.27;;;6.00;;
26080;SDS011;13991;51.174;4.438;2022-11-20T17:21:08;29.47;;;4.90;;
26080;SDS011;13991;51.174;4.438;2022-11-20T17:23:35;36.33;;;5.93;;
26080;SDS011;13991;51.174;4.438;2022-11-20T17:26:11;40.90;;;5.30;;
26080;SDS011;13991;51.174;4.438;2022-11-20T17:28:40;32.23;;;5.20;;
26080;SDS011;13991;51.174;4.438;2022-11-20T17:31:06;34.77;;;5.40;;
26080;SDS011;13991;51.174;4.438;2022-11-20T17:33:38;43.87;;;7.87;;
26080;SDS011;13991;51.174;4.438;2022-11-20T17:36:05;43.37;;;6.03;;
26080;SDS011;13991;51.174;4.438;2022-11-20T17:38:32;38.40;;;6.63;;
26080;SDS011;13991;51.174;4.438;2022-11-20T17:41:05;39.27;;;7.07;;
26080;SDS011;13991;51.174;4.438;2022-11-20T17:43:33;40.63;;;5.57;;
26080;SDS011;13991;51.174;4.438;2022-11-20T17:46:06;29.77;;;4.63;;
26080;SDS011;13991;51.174;4.438;2022-11-20T17:48:33;32.50;;;5.43;;
26080;SDS011;13991;51.174;4.438;2022-11-20T17:51:00;44.37;;;6.23;;
26080;SDS011;13991;51.174;4.438;2022-11-20T17:53:36;42.57;;;6.40;;
26080;SDS011;13991;51.174;4.438;2022-11-20T17:56:03;48.13;;;7.57;;
26080;SDS011;13991;51.174;4.438;2022-11-20T17:58:48;40.50;;;6.13;;
26080;SDS011;13991;51.174;4.438;2022-11-20T18:01:13;55.53;;;9.73;;
26080;SDS011;13991;51.174;4.438;2022-11-20T18:03:39;42.93;;;11.40;;
26080;SDS011;13991;51.174;4.438;2022-11-20T18:06:12;66.93;;;14.53;;
26080;SDS011;13991;51.174;4.438;2022-11-20T18:08:39;59.47;;;12.60;;
26080;SDS011;13991;51.174;4.438;2022-11-20T18:11:10;49.63;;;13.47;;
26080;SDS011;13991;51.174;4.438;2022-11-20T18:13:39;52.23;;;9.63;;
26080;SDS011;13991;51.174;4.438;2022-11-20T18:16:24;36.13;;;7.53;;
26080;SDS011;13991;51.174;4.438;2022-11-20T18:18:52;33.93;;;6.67;;
26080;SDS011;13991;51.174;4.438;2022-11-20T18:21:19;33.37;;;6.67;;
26080;SDS011;13991;51.174;4.438;2022-11-20T18:23:45;31.00;;;7.63;;
26080;SDS011;13991;51.174;4.438;2022-11-20T18:26:11;31.83;;;6.40;;
26080;SDS011;13991;51.174;4.438;2022-11-20T18:28:37;25.90;;;5.23;;
26080;SDS011;13991;51.174;4.438;2022-11-20T18:31:04;40.40;;;6.37;;
26080;SDS011;13991;51.174;4.438;2022-11-20T18:33:30;22.37;;;5.60;;
26080;SDS011;13991;51.174;4.438;2022-11-20T18:35:57;35.93;;;5.87;;
26080;SDS011;13991;51.174;4.438;2022-11-20T18:38:22;38.23;;;5.43;;
26080;SDS011;13991;51.174;4.438;2022-11-20T18:40:48;29.23;;;5.63;;
26080;SDS011;13991;51.174;4.438;2022-11-20T18:43:14;25.47;;;6.20;;
26080;SDS011;13991;51.174;4.438;2022-11-20T18:46:01;28.97;;;5.03;;
26080;SDS011;13991;51.174;4.438;2022-11-20T18:48:30;34.27;;;6.63;;
26080;SDS011;13991;51.174;4.438;2022-11-20T18:51:03;34.63;;;5.20;;
26080;SDS011;13991;51.174;4.438;2022-11-20T18:53:30;41.77;;;5.37;;
26080;SDS011;13991;51.174;4.438;2022-11-20T18:55:55;31.30;;;5.77;;
26080;SDS011;13991;51.174;4.438;2022-11-20T18:58:21;50.47;;;6.77;;
26080;SDS011;13991;51.174;4.438;2022-11-20T19:00:47;44.77;;;11.10;;
26080;SDS011;13991;51.174;4.438;2022-11-20T19:03:13;41.57;;;6.90;;
26080;SDS011;13991;51.174;4.438;2022-11-20T19:05:38;34.93;;;8.13;;
26080;SDS011;13991;51.174;4.438;2022-11-20T19:08:04;40.97;;;7.23;;
26080;SDS011;13991;51.174;4.438;2022-11-20T19:10:29;46.17;;;7.78;;
26080;SDS011;13991;51.174;4.438;2022-11-20T19:12:55;40.80;;;7.60;;
26080;SDS011;13991;51.174;4.438;2022-11-20T19:15:22;34.50;;;6.97;;
26080;SDS011;13991;51.174;4.438;2022-11-20T19:17:48;33.57;;;7.10;;
26080;SDS011;13991;51.174;4.438;2022-11-20T19:20:14;33.10;;;6.27;;
26080;SDS011;13991;51.174;4.438;2022-11-20T19:22:39;33.53;;;7.07;;
26080;SDS011;13991;51.174;4.438;2022-11-20T19:25:05;40.87;;;6.17;;
26080;SDS011;13991;51.174;4.438;2022-11-20T19:27:32;42.97;;;6.70;;
26080;SDS011;13991;51.174;4.438;2022-11-20T19:29:57;51.47;;;10.13;;
26080;SDS011;13991;51.174;4.438;2022-11-20T19:32:26;39.67;;;10.10;;
26080;SDS011;13991;51.174;4.438;2022-11-20T19:34:52;41.33;;;9.33;;
26080;SDS011;13991;51.174;4.438;2022-11-20T19:44:04;49.33;;;8.83;;
26080;SDS011;13991;51.174;4.438;2022-11-20T19:46:32;53.00;;;15.87;;
26080;SDS011;13991;51.174;4.438;2022-11-20T19:48:59;41.13;;;8.57;;
26080;SDS011;13991;51.174;4.438;2022-11-20T19:51:26;52.37;;;8.60;;
26080;SDS011;13991;51.174;4.438;2022-11-20T19:53:54;46.93;;;8.60;;
26080;SDS011;13991;51.174;4.438;2022-11-20T19:56:21;49.53;;;7.07;;